createdAt,value
2023-05-19T00:00:10.640Z,26.80
2023-05-19T00:02:41.736Z,27.00
2023-05-19T00:05:10.451Z,29.10
2023-05-19T00:07:39.473Z,23.92
2023-05-19T00:10:07.301Z,26.15
2023-05-19T00:12:35.616Z,27.08
2023-05-19T00:15:03.015Z,26.73
2023-05-19T00:17:31.569Z,24.52
2023-05-19T00:19:58.720Z,28.92
2023-05-19T00:22:26.041Z,25.80
2023-05-19T00:24:53.161Z,22.92
2023-05-19T00:27:20.311Z,25.95
2023-05-19T00:29:47.433Z,22.67
2023-05-19T00:32:14.565Z,21.38
2023-05-19T00:34:41.729Z,23.60
2023-05-19T00:37:08.954Z,22.77
2023-05-19T00:39:35.998Z,24.77
2023-05-19T00:42:03.217Z,26.65
2023-05-19T00:44:30.288Z,24.63
2023-05-19T00:46:58.025Z,22.15
2023-05-19T00:49:25.302Z,23.45
2023-05-19T00:51:52.315Z,24.58
2023-05-19T00:54:21.091Z,22.38
2023-05-19T00:56:49.986Z,24.92
2023-05-19T00:59:17.440Z,21.10
2023-05-19T01:01:49.068Z,22.23
2023-05-19T01:04:20.196Z,27.25
2023-05-19T01:06:55.200Z,23.73
2023-05-19T01:09:23.092Z,25.50
2023-05-19T01:11:50.737Z,22.33
2023-05-19T01:14:19.585Z,21.92
2023-05-19T01:16:51.814Z,26.00
2023-05-19T01:19:25.571Z,24.88
2023-05-19T01:22:13.295Z,28.52
2023-05-19T01:25:00.251Z,26.67
2023-05-19T01:27:46.285Z,24.70
2023-05-19T01:30:25.444Z,25.52
2023-05-19T01:32:54.981Z,26.40
2023-05-19T01:35:26.354Z,24.67
2023-05-19T01:37:56.956Z,25.55
2023-05-19T01:40:25.766Z,23.45
2023-05-19T01:42:57.411Z,25.33
2023-05-19T01:45:28.077Z,24.93
2023-05-19T01:47:59.272Z,23.65
2023-05-19T01:50:27.126Z,25.77
2023-05-19T01:52:55.483Z,24.27
2023-05-19T01:55:25.312Z,24.25
2023-05-19T01:57:52.311Z,22.85
2023-05-19T02:00:32.201Z,25.02
2023-05-19T02:03:11.477Z,19.70
2023-05-19T02:05:46.054Z,23.35
2023-05-19T02:08:34.650Z,23.70
2023-05-19T02:11:19.822Z,21.17
2023-05-19T02:13:50.482Z,26.05
2023-05-19T02:16:18.080Z,23.85
2023-05-19T02:18:46.342Z,30.33
2023-05-19T02:21:13.682Z,22.98
2023-05-19T02:23:44.073Z,22.63
2023-05-19T02:26:11.290Z,22.60
2023-05-19T02:28:38.389Z,26.35
2023-05-19T02:31:08.986Z,28.52
2023-05-19T02:33:36.424Z,24.60
2023-05-19T02:36:03.636Z,25.63
2023-05-19T02:38:31.097Z,27.15
2023-05-19T02:40:58.761Z,20.80
2023-05-19T02:43:25.932Z,25.25
2023-05-19T02:45:53.073Z,22.23
2023-05-19T02:48:20.232Z,23.25
2023-05-19T02:50:47.311Z,21.33
2023-05-19T02:53:14.422Z,23.75
2023-05-19T02:55:42.486Z,21.95
2023-05-19T02:58:09.678Z,23.50
2023-05-19T03:00:36.906Z,23.27
2023-05-19T03:03:04.678Z,25.25
2023-05-19T03:05:31.962Z,22.38
2023-05-19T03:07:59.089Z,23.23
2023-05-19T03:10:26.337Z,23.55
2023-05-19T03:12:53.624Z,23.15
2023-05-19T03:15:23.220Z,31.20
2023-05-19T03:17:50.556Z,23.30
2023-05-19T03:20:18.234Z,22.20
2023-05-19T03:22:45.233Z,22.58
2023-05-19T03:25:12.533Z,19.17
2023-05-19T03:27:40.729Z,23.05
2023-05-19T03:30:09.143Z,22.83
2023-05-19T03:32:46.834Z,28.75
2023-05-19T03:35:14.048Z,21.88
2023-05-19T03:37:41.092Z,22.88
2023-05-19T03:40:09.089Z,23.70
2023-05-19T03:42:37.973Z,22.77
2023-05-19T03:45:06.014Z,21.80
2023-05-19T03:47:33.219Z,22.90
2023-05-19T03:50:10.964Z,21.67
2023-05-19T03:52:50.633Z,25.10
2023-05-19T03:55:30.076Z,26.33
2023-05-19T03:57:57.456Z,24.90
2023-05-19T04:00:25.115Z,23.08
2023-05-19T04:02:52.301Z,28.95
2023-05-19T04:05:19.502Z,25.98
2023-05-19T04:07:46.971Z,28.42
2023-05-19T04:10:14.566Z,28.90
2023-05-19T04:12:41.700Z,28.15
2023-05-19T04:15:11.608Z,26.55
2023-05-19T04:17:39.624Z,25.42
2023-05-19T04:20:07.417Z,31.55
2023-05-19T04:22:34.543Z,28.48
2023-05-19T04:25:01.902Z,23.80
2023-05-19T04:27:30.279Z,27.42
2023-05-19T04:29:58.241Z,22.58
2023-05-19T04:32:25.883Z,27.13
2023-05-19T04:34:54.179Z,25.70
2023-05-19T04:37:26.271Z,23.45
2023-05-19T04:39:54.311Z,23.88
2023-05-19T04:42:26.257Z,26.85
2023-05-19T04:44:54.698Z,29.70
2023-05-19T04:47:28.293Z,24.20
2023-05-19T04:49:55.920Z,28.00
2023-05-19T04:52:23.893Z,24.17
2023-05-19T04:54:51.532Z,26.98
2023-05-19T04:57:18.792Z,27.08
2023-05-19T04:59:46.489Z,25.30
2023-05-19T05:02:13.992Z,25.63
2023-05-19T05:04:42.775Z,24.48
2023-05-19T05:07:10.937Z,22.48
2023-05-19T05:09:38.813Z,25.02
2023-05-19T05:12:08.166Z,26.77
2023-05-19T05:14:37.271Z,21.55
2023-05-19T05:17:05.403Z,27.15
2023-05-19T05:19:33.142Z,22.63
2023-05-19T05:22:00.695Z,22.98
2023-05-19T05:24:28.257Z,24.90
2023-05-19T05:26:59.608Z,25.83
2023-05-19T05:29:27.122Z,22.35
2023-05-19T05:31:54.631Z,21.23
2023-05-19T05:34:23.155Z,20.77
2023-05-19T05:36:50.341Z,22.38
2023-05-19T05:39:18.625Z,21.20
2023-05-19T05:41:45.967Z,25.48
2023-05-19T05:44:13.346Z,20.65
2023-05-19T05:46:43.013Z,23.35
2023-05-19T05:49:12.531Z,25.40
2023-05-19T05:51:51.117Z,25.15
2023-05-19T05:54:30.256Z,22.58
2023-05-19T05:56:57.930Z,17.13
2023-05-19T05:59:25.214Z,20.30
2023-05-19T06:01:52.292Z,24.13
2023-05-19T06:04:21.402Z,20.10
2023-05-19T06:06:48.644Z,19.67
2023-05-19T06:09:20.989Z,21.95
2023-05-19T06:11:48.220Z,18.60
2023-05-19T06:14:15.452Z,17.42
2023-05-19T06:17:03.665Z,19.77
2023-05-19T06:19:31.263Z,20.55
2023-05-19T06:21:58.693Z,17.55
2023-05-19T06:24:25.923Z,17.27
2023-05-19T06:26:53.134Z,19.60
2023-05-19T06:29:20.310Z,18.77
2023-05-19T06:31:48.604Z,13.68
2023-05-19T06:34:17.826Z,18.40
2023-05-19T06:36:47.087Z,16.25
2023-05-19T06:39:15.215Z,15.98
2023-05-19T06:41:42.441Z,14.25
2023-05-19T06:44:09.694Z,14.43
2023-05-19T06:46:37.058Z,13.05
2023-05-19T06:49:04.822Z,11.63
2023-05-19T06:51:36.958Z,14.75
2023-05-19T06:54:04.731Z,12.45
2023-05-19T06:56:34.132Z,15.40
2023-05-19T06:59:01.230Z,19.15
2023-05-19T07:01:34.518Z,15.82
2023-05-19T07:04:02.431Z,11.10
2023-05-19T07:06:30.274Z,12.98
2023-05-19T07:08:57.821Z,13.13
2023-05-19T07:11:26.477Z,12.05
2023-05-19T07:13:54.173Z,15.40
2023-05-19T07:16:26.959Z,12.73
2023-05-19T07:18:55.315Z,11.20
2023-05-19T07:21:22.466Z,15.02
2023-05-19T07:23:50.424Z,12.70
2023-05-19T07:26:17.577Z,15.18
2023-05-19T07:28:44.787Z,14.05
2023-05-19T07:31:11.870Z,16.00
2023-05-19T07:33:38.966Z,18.48
2023-05-19T07:36:06.160Z,14.27
2023-05-19T07:38:36.186Z,12.88
2023-05-19T07:41:03.740Z,14.57
2023-05-19T07:43:30.909Z,15.50
2023-05-19T07:45:58.075Z,18.55
2023-05-19T07:48:26.021Z,15.18
2023-05-19T07:50:53.558Z,19.95
2023-05-19T07:53:21.032Z,14.50
2023-05-19T07:55:48.487Z,13.50
2023-05-19T07:58:15.966Z,15.63
2023-05-19T08:00:43.430Z,12.25
2023-05-19T08:03:10.859Z,15.20
2023-05-19T08:05:38.191Z,14.55
2023-05-19T08:08:05.584Z,15.63
2023-05-19T08:10:32.967Z,17.48
2023-05-19T08:13:00.450Z,17.50
2023-05-19T08:15:27.609Z,16.38
2023-05-19T08:17:54.740Z,19.13
2023-05-19T08:20:23.178Z,20.92
2023-05-19T08:22:50.811Z,13.90
2023-05-19T08:25:19.872Z,20.75
2023-05-19T08:27:47.057Z,15.38
2023-05-19T08:30:14.455Z,16.88
2023-05-19T08:32:41.880Z,14.07
2023-05-19T08:35:09.504Z,13.27
2023-05-19T08:37:38.222Z,16.95
2023-05-19T08:40:06.061Z,14.32
2023-05-19T08:42:34.062Z,17.08
2023-05-19T08:45:02.565Z,15.52
2023-05-19T08:47:29.871Z,16.02
2023-05-19T08:50:10.956Z,15.82
2023-05-19T08:53:04.272Z,17.25
2023-05-19T08:55:36.890Z,17.42
2023-05-19T08:58:05.050Z,19.97
2023-05-19T09:00:33.217Z,16.15
2023-05-19T09:05:34.000Z,17.52
2023-05-19T09:08:02.932Z,14.65
2023-05-19T09:10:30.012Z,13.75
2023-05-19T09:12:57.190Z,17.25
2023-05-19T09:15:30.856Z,17.67
2023-05-19T09:18:11.991Z,18.15
2023-05-19T09:20:43.676Z,17.33
2023-05-19T09:23:17.528Z,17.50
2023-05-19T09:25:52.421Z,17.52
2023-05-19T09:28:33.414Z,14.95
2023-05-19T09:31:11.345Z,14.68
2023-05-19T09:33:42.202Z,14.77
2023-05-19T09:36:13.668Z,15.88
2023-05-19T09:38:41.481Z,18.65
2023-05-19T09:41:09.422Z,17.25
2023-05-19T09:43:36.901Z,19.23
2023-05-19T09:46:06.341Z,15.77
2023-05-19T09:48:35.638Z,18.48
2023-05-19T09:51:05.306Z,19.92
2023-05-19T09:53:34.990Z,17.20
2023-05-19T09:56:03.707Z,16.40
2023-05-19T09:58:37.431Z,15.05
2023-05-19T10:01:05.888Z,15.77
2023-05-19T10:03:34.147Z,15.98
2023-05-19T10:06:01.768Z,17.38
2023-05-19T10:08:30.855Z,14.35
2023-05-19T10:10:58.514Z,14.98
2023-05-19T10:13:26.010Z,16.75
2023-05-19T10:15:58.610Z,18.58
2023-05-19T10:18:30.270Z,20.52
2023-05-19T10:20:58.222Z,13.90
2023-05-19T10:23:26.223Z,14.25
2023-05-19T10:25:58.382Z,16.30
2023-05-19T10:28:31.309Z,20.92
2023-05-19T10:31:01.892Z,16.45
2023-05-19T10:33:45.207Z,12.73
2023-05-19T10:36:47.894Z,15.40
2023-05-19T10:39:28.483Z,17.48
2023-05-19T10:42:04.851Z,14.65
2023-05-19T10:44:45.971Z,15.75
2023-05-19T10:47:13.457Z,19.85
2023-05-19T10:49:40.898Z,15.23
2023-05-19T10:52:26.418Z,14.43
2023-05-19T10:54:54.957Z,15.40
2023-05-19T10:57:31.916Z,13.75
2023-05-19T11:00:11.225Z,13.82
2023-05-19T11:02:43.420Z,20.95
2023-05-19T11:05:16.796Z,13.63
2023-05-19T11:10:23.786Z,15.40
2023-05-19T11:12:52.330Z,13.20
2023-05-19T11:15:26.062Z,17.60
2023-05-19T11:17:53.953Z,15.27
2023-05-19T11:20:22.929Z,14.98
2023-05-19T11:23:20.354Z,14.18
2023-05-19T11:25:52.276Z,13.48
2023-05-19T11:28:25.739Z,18.08
2023-05-19T11:30:55.496Z,16.08
2023-05-19T11:33:27.371Z,13.48
2023-05-19T11:35:59.697Z,15.00
2023-05-19T11:38:30.197Z,16.17
2023-05-19T11:40:57.831Z,11.77
2023-05-19T11:43:26.280Z,17.20
2023-05-19T11:45:55.061Z,14.07
2023-05-19T11:48:22.811Z,14.13
2023-05-19T11:50:50.506Z,19.08
2023-05-19T11:53:17.717Z,16.05
2023-05-19T11:55:49.023Z,15.65
2023-05-19T11:58:16.930Z,15.02
2023-05-19T12:00:47.948Z,16.73
2023-05-19T12:03:15.623Z,17.48
2023-05-19T12:05:46.807Z,18.88
2023-05-19T12:08:17.238Z,14.18
2023-05-19T12:10:50.001Z,14.90
2023-05-19T12:13:17.422Z,14.60
2023-05-19T12:15:44.683Z,13.13
2023-05-19T12:18:12.305Z,13.65
2023-05-19T12:20:39.760Z,15.38
2023-05-19T12:23:07.671Z,15.85
2023-05-19T12:25:35.187Z,14.10
2023-05-19T12:28:05.547Z,17.15
2023-05-19T12:30:33.605Z,21.88
2023-05-19T12:33:02.808Z,14.57
2023-05-19T12:35:34.470Z,14.90
2023-05-19T12:38:07.765Z,18.80
2023-05-19T12:43:04.224Z,13.90
2023-05-19T12:45:35.523Z,12.55
2023-05-19T12:48:11.469Z,24.52
2023-05-19T12:50:39.111Z,15.45
2023-05-19T12:53:16.294Z,15.10
2023-05-19T12:55:45.234Z,16.98
2023-05-19T12:58:12.803Z,20.75
2023-05-19T13:00:45.699Z,15.57
2023-05-19T13:03:17.909Z,13.15
2023-05-19T13:05:48.248Z,16.95
2023-05-19T13:08:21.591Z,19.10
2023-05-19T13:13:17.562Z,16.58
2023-05-19T13:15:48.728Z,14.43
2023-05-19T13:18:17.288Z,16.83
2023-05-19T13:20:45.615Z,12.95
2023-05-19T13:23:13.777Z,14.43
2023-05-19T13:25:41.554Z,18.00
2023-05-19T13:28:09.767Z,14.13
2023-05-19T13:30:39.152Z,18.55
2023-05-19T13:33:06.741Z,15.65
2023-05-19T13:35:37.647Z,16.20
2023-05-19T13:38:07.034Z,16.50
2023-05-19T13:40:35.225Z,15.02
2023-05-19T13:43:03.408Z,15.45
2023-05-19T13:45:30.730Z,16.23
2023-05-19T13:47:57.753Z,15.07
2023-05-19T13:50:24.793Z,13.35
2023-05-19T13:52:52.158Z,16.55
2023-05-19T13:55:19.535Z,19.48
2023-05-19T13:57:46.657Z,21.05
2023-05-19T14:00:14.682Z,18.65
2023-05-19T14:02:42.493Z,16.65
2023-05-19T14:05:10.185Z,16.80
2023-05-19T14:07:37.322Z,15.20
2023-05-19T14:10:08.087Z,15.13
2023-05-19T14:12:49.493Z,15.80
2023-05-19T14:15:23.860Z,12.25
2023-05-19T14:17:51.070Z,17.92
2023-05-19T14:20:18.397Z,17.42
2023-05-19T14:22:45.633Z,17.50
2023-05-19T14:25:12.709Z,13.98
2023-05-19T14:27:42.611Z,14.43
2023-05-19T14:30:10.251Z,19.60
2023-05-19T14:32:37.468Z,18.90
2023-05-19T14:35:05.119Z,18.90
2023-05-19T14:37:32.476Z,19.15
2023-05-19T14:39:59.927Z,19.70
2023-05-19T14:42:27.032Z,13.95
2023-05-19T14:44:54.233Z,17.58
2023-05-19T14:47:21.553Z,16.33
2023-05-19T14:49:48.852Z,14.10
2023-05-19T14:52:16.036Z,13.30
2023-05-19T14:54:43.144Z,14.65
2023-05-19T14:57:10.197Z,12.10
2023-05-19T14:59:38.088Z,10.88
2023-05-19T15:02:05.786Z,15.25
2023-05-19T15:04:32.886Z,18.50
2023-05-19T15:09:30.073Z,16.00
2023-05-19T15:11:57.380Z,16.40
2023-05-19T15:14:24.468Z,15.18
2023-05-19T15:16:51.581Z,10.70
2023-05-19T15:19:18.765Z,15.30
2023-05-19T15:21:45.993Z,17.85
2023-05-19T15:24:13.096Z,16.77
2023-05-19T15:26:40.286Z,11.80
2023-05-19T15:29:07.341Z,16.65
2023-05-19T15:31:35.932Z,14.15
2023-05-19T15:34:05.166Z,11.48
2023-05-19T15:36:32.397Z,14.65
2023-05-19T15:38:59.505Z,8.77
2023-05-19T15:41:26.889Z,9.52
2023-05-19T15:43:54.125Z,14.80
2023-05-19T15:46:21.512Z,10.65
2023-05-19T15:48:48.653Z,11.95
2023-05-19T15:51:16.157Z,11.52
2023-05-19T15:53:43.319Z,10.88
2023-05-19T15:56:10.780Z,11.25
2023-05-19T15:58:37.907Z,11.55
2023-05-19T16:01:05.358Z,14.15
2023-05-19T16:03:32.881Z,12.25
2023-05-19T16:06:01.107Z,13.02
2023-05-19T16:08:28.914Z,10.13
2023-05-19T16:10:56.510Z,11.40
2023-05-19T16:13:23.717Z,17.27
2023-05-19T16:15:50.970Z,14.95
2023-05-19T16:18:18.264Z,14.25
2023-05-19T16:20:45.534Z,13.10
2023-05-19T16:23:12.776Z,17.67
2023-05-19T16:25:40.007Z,13.23
2023-05-19T16:28:07.334Z,14.38
2023-05-19T16:30:34.803Z,12.23
2023-05-19T16:33:02.243Z,11.73
2023-05-19T16:35:29.931Z,13.38
2023-05-19T16:37:57.150Z,11.38
2023-05-19T16:40:24.343Z,11.05
2023-05-19T16:42:53.469Z,13.70
2023-05-19T16:45:20.760Z,16.88
2023-05-19T16:47:47.941Z,10.75
2023-05-19T16:50:15.295Z,12.27
2023-05-19T16:52:42.638Z,13.63
2023-05-19T16:55:11.091Z,11.48
2023-05-19T16:57:38.298Z,10.40
2023-05-19T17:00:06.105Z,10.27
2023-05-19T17:02:33.357Z,14.25
2023-05-19T17:05:00.614Z,13.57
2023-05-19T17:07:29.304Z,18.27
2023-05-19T17:09:56.684Z,15.93
2023-05-19T17:12:23.859Z,17.60
2023-05-19T17:14:52.288Z,12.52
2023-05-19T17:17:19.676Z,15.38
2023-05-19T17:19:46.951Z,14.40
2023-05-19T17:22:14.177Z,14.65
2023-05-19T17:24:41.474Z,20.77
2023-05-19T17:27:08.643Z,19.13
2023-05-19T17:29:36.924Z,18.27
2023-05-19T17:32:04.551Z,18.42
2023-05-19T17:34:31.783Z,20.48
2023-05-19T17:36:59.176Z,14.98
2023-05-19T17:39:26.396Z,15.48
2023-05-19T17:41:53.432Z,14.73
2023-05-19T17:44:20.565Z,16.73
2023-05-19T17:46:47.874Z,15.55
2023-05-19T17:49:15.572Z,18.45
2023-05-19T17:51:42.992Z,13.68
2023-05-19T17:54:10.236Z,14.50
2023-05-19T17:56:42.770Z,19.05
2023-05-19T17:59:10.487Z,11.50
2023-05-19T18:01:37.773Z,15.43
2023-05-19T18:04:05.686Z,18.63
2023-05-19T18:06:33.190Z,14.75
2023-05-19T18:09:01.431Z,18.98
2023-05-19T18:11:28.969Z,14.60
2023-05-19T18:13:56.310Z,12.25
2023-05-19T18:16:23.439Z,15.25
2023-05-19T18:18:51.100Z,20.48
2023-05-19T18:21:18.264Z,15.35
2023-05-19T18:23:45.932Z,15.18
2023-05-19T18:26:13.496Z,15.65
2023-05-19T18:28:41.916Z,16.85
2023-05-19T18:31:11.078Z,16.65
2023-05-19T18:33:38.226Z,13.05
2023-05-19T18:36:05.631Z,14.80
2023-05-19T18:38:32.652Z,18.88
2023-05-19T18:41:00.899Z,20.70
2023-05-19T18:43:30.244Z,15.02
2023-05-19T18:45:57.474Z,16.35
2023-05-19T18:48:25.831Z,20.80
2023-05-19T18:50:53.037Z,20.08
2023-05-19T18:53:22.484Z,17.23
2023-05-19T18:55:49.632Z,15.50
2023-05-19T18:58:18.779Z,15.82
2023-05-19T19:00:46.108Z,17.65
2023-05-19T19:03:13.538Z,20.25
2023-05-19T19:05:40.906Z,14.50
2023-05-19T19:08:08.066Z,14.40
2023-05-19T19:10:39.122Z,13.88
2023-05-19T19:13:06.864Z,16.75
2023-05-19T19:15:33.957Z,16.05
2023-05-19T19:18:01.132Z,16.40
2023-05-19T19:20:28.201Z,16.67
2023-05-19T19:22:55.276Z,14.68
2023-05-19T19:25:23.707Z,19.30
2023-05-19T19:27:51.330Z,16.85
2023-05-19T19:30:18.480Z,16.67
2023-05-19T19:32:45.915Z,15.45
2023-05-19T19:35:13.165Z,15.57
2023-05-19T19:37:40.222Z,15.07
2023-05-19T19:40:07.949Z,18.60
2023-05-19T19:42:35.435Z,18.17
2023-05-19T19:45:02.567Z,20.70
2023-05-19T19:47:29.661Z,15.10
2023-05-19T19:49:56.814Z,14.57
2023-05-19T19:52:24.042Z,14.18
2023-05-19T19:54:51.250Z,14.10
2023-05-19T19:57:18.488Z,13.50
2023-05-19T19:59:45.708Z,13.20
2023-05-19T20:02:12.883Z,14.30
2023-05-19T20:04:40.168Z,9.63
2023-05-19T20:07:07.381Z,11.75
2023-05-19T20:09:34.500Z,11.23
2023-05-19T20:12:01.661Z,11.13
2023-05-19T20:14:28.849Z,10.63
2023-05-19T20:16:55.960Z,11.43
2023-05-19T20:19:28.017Z,11.88
2023-05-19T20:21:55.481Z,10.57
2023-05-19T20:24:22.663Z,11.75
2023-05-19T20:26:49.881Z,10.45
2023-05-19T20:29:17.099Z,8.93
2023-05-19T20:31:46.528Z,11.45
2023-05-19T20:34:13.803Z,9.82
2023-05-19T20:36:41.178Z,11.38
2023-05-19T20:39:11.003Z,10.25
2023-05-19T20:41:38.089Z,12.10
2023-05-19T20:44:06.119Z,11.90
2023-05-19T20:46:33.361Z,11.52
2023-05-19T20:49:00.561Z,10.02
2023-05-19T20:51:27.731Z,11.98
2023-05-19T20:53:54.837Z,10.73
2023-05-19T20:56:22.726Z,11.73
2023-05-19T20:58:49.955Z,9.50
2023-05-19T21:01:17.340Z,16.23
2023-05-19T21:03:44.485Z,11.07
2023-05-19T21:06:11.730Z,11.77
2023-05-19T21:08:38.936Z,13.23
2023-05-19T21:11:06.246Z,10.63
2023-05-19T21:13:51.768Z,11.95
2023-05-19T21:16:18.883Z,12.95
2023-05-19T21:18:46.179Z,10.10
2023-05-19T21:21:13.270Z,12.05
2023-05-19T21:23:40.318Z,10.85
2023-05-19T21:26:07.606Z,9.73
2023-05-19T21:28:34.668Z,10.88
2023-05-19T21:31:01.860Z,11.40
2023-05-19T21:33:29.078Z,10.65
2023-05-19T21:35:58.182Z,13.93
2023-05-19T21:38:25.341Z,11.38
2023-05-19T21:40:53.285Z,11.90
2023-05-19T21:43:23.393Z,11.18
2023-05-19T21:45:50.645Z,11.65
2023-05-19T21:48:18.144Z,10.05
2023-05-19T21:50:45.363Z,10.38
2023-05-19T21:53:12.694Z,11.95
2023-05-19T21:55:39.890Z,11.48
2023-05-19T21:58:07.082Z,12.13
2023-05-19T22:00:34.520Z,10.80
2023-05-19T22:03:01.952Z,12.65
2023-05-19T22:05:35.099Z,15.13
2023-05-19T22:08:02.261Z,15.00
2023-05-19T22:10:29.424Z,13.90
2023-05-19T22:12:57.600Z,15.43
2023-05-19T22:15:24.828Z,17.67
2023-05-19T22:17:52.088Z,14.02
2023-05-19T22:20:19.371Z,19.65
2023-05-19T22:22:46.536Z,19.83
2023-05-19T22:25:13.730Z,17.25
2023-05-19T22:27:40.861Z,18.65
2023-05-19T22:30:08.494Z,15.65
2023-05-19T22:32:36.298Z,17.70
2023-05-19T22:35:03.683Z,21.25
2023-05-19T22:37:30.977Z,19.52
2023-05-19T22:39:58.073Z,15.88
2023-05-19T22:42:25.357Z,15.95
2023-05-19T22:44:52.500Z,15.63
2023-05-19T22:47:19.559Z,17.02
2023-05-19T22:49:46.898Z,16.65
2023-05-19T22:52:14.630Z,15.48
2023-05-19T22:54:42.014Z,16.75
2023-05-19T22:57:09.628Z,19.73
2023-05-19T22:59:38.349Z,16.30
2023-05-19T23:02:06.145Z,17.17
2023-05-19T23:04:34.535Z,15.35
2023-05-19T23:07:01.858Z,20.13
2023-05-19T23:09:28.924Z,21.02
2023-05-19T23:11:56.122Z,16.30
2023-05-19T23:14:23.162Z,15.18
2023-05-19T23:16:50.450Z,19.10
2023-05-19T23:19:17.685Z,15.23
2023-05-19T23:21:46.008Z,18.55
2023-05-19T23:24:13.112Z,16.40
2023-05-19T23:26:45.986Z,16.60
2023-05-19T23:29:14.858Z,15.63
2023-05-19T23:31:42.031Z,16.17
2023-05-19T23:34:09.192Z,15.68
2023-05-19T23:36:36.832Z,20.77
2023-05-19T23:39:03.969Z,16.30
2023-05-19T23:41:31.549Z,15.55
2023-05-19T23:43:58.648Z,21.08
2023-05-19T23:46:26.028Z,18.40
2023-05-19T23:48:53.071Z,15.98
2023-05-19T23:51:20.106Z,14.80
2023-05-19T23:53:47.198Z,19.35
2023-05-19T23:56:14.409Z,16.67
2023-05-19T23:58:41.512Z,14.40
